Ride Results

TMSR Pink Ride (18-05-2013)
Ride distance: 80.0 km

Outcomes - TMSR Pink Ride (18-05-2013)
Division No. of Entries Retired / DNE Completed Withdrawn Ineligible V/O Percentage Completed
HW 6 - 3 - - 3 50.00%
MW 12 - 10 1 - 1 83.33%
LW 14 - 10 3 - 1 71.43%
JN 7 - 7 - - - 100.00%
Totals 39 - 30 4 - 5 76.92%
Results - TMSR Pink Ride (18-05-2013)
No. Rider Horse Place Time Leg Speeds Total
Km/Hr
H/R bpm
Heavyweight
247 David Pilgrim Lauralyn Flight 1 (BC) 6:34:00 13.2, 11.2 12.18 37, 44, 48 (Avg:46)
166 Craig Wilson Stellar Express 1 6:34:00 13.0, 11.4 12.18 35, 45, 52 (Avg:48)
141 Tim Potter Highland View Molly 3 7:53:00 10.9, 9.4 10.15 38, 48, 53 (Avg:50)
94 Natalie Humphries Duo Park Almighty Lame L2 0:00:00 14.1, 13.4 - 32, 49, 56 (Avg:52)
29 Trenton Huxtable Highland View Crush Heart Rate L2 0:00:00 13.8, 13.0 - 37, 46, 66 (Avg:56)
O John Shoobridge Bomber Heart Rate L2 0:00:00 13.1, 12.1 - 38, 49, 67 (Avg:58)
Middleweight
101 Wendy Rand Shayelle Memphis 1 (BC) 5:04:00 17.6, 14.2 15.79 32, 41, 45 (Avg:43)
76 Karin Morris Rivergum Skye 2 5:38:00 15.6, 12.9 14.20 34, 41, 47 (Avg:44)
110 Ellie Maddick Castlebar Nasa 3 5:44:00 13.1, 14.9 13.95 34, 41, 50 (Avg:45)
261 Danielle Taylor Highland View Steel 3 5:44:00 14.0, 13.8 13.95 30, 39, 46 (Avg:42)
92 Blaine Astell Highland View Cruise 5 6:00:00 13.3, 13.3 13.33 28, 44, 54 (Avg:49)
207 Graham Bucknell Kairo 6 6:21:00 13.4, 11.8 12.60 36, 45, 54 (Avg:49)
189 Leonie Stewart Rojenn Retaan 7 6:34:00 12.5, 11.8 12.18 36, 43, 59 (Avg:51)
232 Angela Gatti Bellatrix Lodge Sahriaal 8 7:08:00 12.1, 10.3 11.21 43, 40, 52 (Avg:46)
269 Korena Armstrong Shemali Marquis 9 7:32:00 11.2, 10.0 10.62 36, 46, 51 (Avg:48)
48 Alison Colbeck Highland View Spirit 10 7:54:00 10.4, 9.7 10.13 33, 47, 59 (Avg:53)
199 Dennis Foley Jnr Calga Al-Hadiye Heart Rate L2 0:00:00 18.7, 16.6 - 44, 47, 67 (Avg:57)
146 Ricky Febey DJ Rocky Withdrawn P/R 0:00:00 - - 30
Lightweight
150 Emily Shadbolt Tanbark Jasper 1 (BC) 4:18:00 18.7, 18.4 18.60 51, 44, 50 (Avg:47)
175 Carolyn Webster Echo Austin 2 4:51:00 18.7, 14.7 16.49 39, 42, 45 (Avg:43)
182 Fran Jordan Tierview Saadat 3 5:38:00 15.6, 12.9 14.20 59, 48, 53 (Avg:50)
81 Alison Simpson Follydown Laeyla 4 5:51:00 14.5, 12.9 13.68 34, 50, 55 (Avg:52)
200 Kristy Matheson Highland View Moonshine 5 5:57:00 13.8, 13.0 13.45 38, 44, 54 (Avg:49)
1 Ann Richards Kintamani Shakil 6 6:11:00 14.0, 11.9 12.94 34, 40, 54 (Avg:47)
203 Ellie Woodhouse Brynddu Idyll 7 6:25:00 12.6, 12.3 12.47 34, 42, 46 (Avg:44)
260 Brooke McKenna DJ Ernie 8 7:08:00 11.5, 10.8 11.21 50, 41, 46 (Avg:43)
259 Judi Leale Ellusive Design 9 7:53:00 10.9, 9.4 10.15 33, 55, 49 (Avg:52)
220 Ebony Lamprey Nara Park Rosie 10 7:54:00 10.4, 9.7 10.13 34, 55, 49 (Avg:52)
179 Debbie Grull Lauralyn Notorious Lame L1 0:00:00 13.8 - 32, 39 (Avg:39)
90 Angela Hawks Kalody Park Prysain Withdrawn L1 0:00:00 - - 39, 52 (Avg:52)
19 Sonia Hodgetts Tuldar Shalimar Withdrawn L1 0:00:00 - - 31, 47 (Avg:47)
51 Debbie Leary Kerrilea Finesse Withdrawn L1 0:00:00 - - 38, 44 (Avg:44)
Junior
186 Amelia Napier The Joker 1 (BC) 4:18:00 18.7, 18.4 18.60 33, 46, 51 (Avg:48)
209 Grace Huxtable Highland View Jess 2 5:57:00 13.8, 13.0 13.45 33, 45, 53 (Avg:49)
129 Kirsty Sward Neilly Anderton Park El Ashar 3 6:20:00 13.1, 12.1 12.63 33, 40, 48 (Avg:44)
154 Sarah Parker Davlyn Park Camille 4 6:25:00 12.6, 12.3 12.47 30, 47, 49 (Avg:48)
53 Lillian Stewart Shopans Silver Charm 5 6:34:00 12.5, 11.8 12.18 34, 38, 53 (Avg:45)
249 Corey Foley DJ Bazza 6 7:08:00 11.5, 10.8 11.21 32, 48, 50 (Avg:49)
176 Bronte Page Armani 6 7:08:00 11.5, 10.8 11.21 38, 45, 56 (Avg:50)